sensor_id;sensor_type;location;lat;lon;timestamp;pressure;altitude;pressure_sealevel;temperature;humidity
68654;BME280;55636;51.108;13.622;2023-01-27T00:00:33;100854.16;;;-1.00;65.25
68654;BME280;55636;51.108;13.622;2023-01-27T00:01:51;100855.22;;;-1.01;65.23
68654;BME280;55636;51.108;13.622;2023-01-27T00:02:57;100853.34;;;-1.00;65.15
68654;BME280;55636;51.108;13.622;2023-01-27T00:04:04;100845.19;;;-1.00;65.43
68654;BME280;55636;51.108;13.622;2023-01-27T00:05:15;100853.16;;;-0.99;65.12
68654;BME280;55636;51.108;13.622;2023-01-27T00:06:22;100850.63;;;-1.00;65.09
68654;BME280;55636;51.108;13.622;2023-01-27T00:07:30;100852.50;;;-1.01;65.14
68654;BME280;55636;51.108;13.622;2023-01-27T00:08:39;100846.91;;;-0.99;65.31
68654;BME280;55636;51.108;13.622;2023-01-27T00:09:47;100843.31;;;-1.00;65.08
68654;BME280;55636;51.108;13.622;2023-01-27T00:10:55;100842.47;;;-1.00;65.29
68654;BME280;55636;51.108;13.622;2023-01-27T00:12:26;100844.38;;;-1.01;65.10
68654;BME280;55636;51.108;13.622;2023-01-27T00:13:54;100842.47;;;-1.00;65.18
68654;BME280;55636;51.108;13.622;2023-01-27T00:15:06;100848.59;;;-0.98;65.14
68654;BME280;55636;51.108;13.622;2023-01-27T00:16:11;100847.91;;;-1.00;65.21
68654;BME280;55636;51.108;13.622;2023-01-27T00:17:25;100849.59;;;-0.99;65.13
68654;BME280;55636;51.108;13.622;2023-01-27T00:18:33;100846.03;;;-1.00;65.15
68654;BME280;55636;51.108;13.622;2023-01-27T00:19:41;100837.88;;;-1.00;65.12
68654;BME280;55636;51.108;13.622;2023-01-27T00:20:58;100839.78;;;-1.00;65.11
68654;BME280;55636;51.108;13.622;2023-01-27T00:22:33;100841.47;;;-0.99;65.15
68654;BME280;55636;51.108;13.622;2023-01-27T00:24:01;100838.94;;;-1.01;65.16
68654;BME280;55636;51.108;13.622;2023-01-27T00:25:41;100841.66;;;-1.01;64.92
68654;BME280;55636;51.108;13.622;2023-01-27T00:27:03;100842.66;;;-1.02;64.97
68654;BME280;55636;51.108;13.622;2023-01-27T00:28:19;100842.66;;;-1.02;65.15
68654;BME280;55636;51.108;13.622;2023-01-27T00:29:30;100837.41;;;-1.03;65.14
68654;BME280;55636;51.108;13.622;2023-01-27T00:30:34;100840.97;;;-1.03;65.06
68654;BME280;55636;51.108;13.622;2023-01-27T00:31:41;100835.53;;;-1.03;65.12
68654;BME280;55636;51.108;13.622;2023-01-27T00:33:04;100838.25;;;-1.03;65.22
68654;BME280;55636;51.108;13.622;2023-01-27T00:34:32;100835.53;;;-1.03;65.05
68654;BME280;55636;51.108;13.622;2023-01-27T00:35:39;100837.41;;;-1.03;65.01
68654;BME280;55636;51.108;13.622;2023-01-27T00:37:00;100835.72;;;-1.05;65.19
68654;BME280;55636;51.108;13.622;2023-01-27T00:38:10;100841.13;;;-1.05;65.12
68654;BME280;55636;51.108;13.622;2023-01-27T00:39:16;100836.56;;;-1.04;65.11
68654;BME280;55636;51.108;13.622;2023-01-27T00:40:37;100833.00;;;-1.05;65.18
68654;BME280;55636;51.108;13.622;2023-01-27T00:42:02;100841.97;;;-1.04;65.21
68654;BME280;55636;51.108;13.622;2023-01-27T00:43:27;100838.44;;;-1.05;65.37
68654;BME280;55636;51.108;13.622;2023-01-27T00:44:38;100841.13;;;-1.05;65.36
68654;BME280;55636;51.108;13.622;2023-01-27T00:46:04;100839.25;;;-1.04;65.08
68654;BME280;55636;51.108;13.622;2023-01-27T00:47:13;100845.56;;;-1.03;65.07
68654;BME280;55636;51.108;13.622;2023-01-27T00:48:31;100835.53;;;-1.03;65.18
68654;BME280;55636;51.108;13.622;2023-01-27T00:49:55;100836.56;;;-1.04;65.25
68654;BME280;55636;51.108;13.622;2023-01-27T00:51:17;100842.84;;;-1.03;65.03
68654;BME280;55636;51.108;13.622;2023-01-27T00:52:22;100847.22;;;-1.02;65.13
68654;BME280;55636;51.108;13.622;2023-01-27T00:53:38;100849.09;;;-1.03;65.05
68654;BME280;55636;51.108;13.622;2023-01-27T00:54:43;100846.38;;;-1.03;65.20
68654;BME280;55636;51.108;13.622;2023-01-27T00:55:52;100831.13;;;-1.04;65.09
68654;BME280;55636;51.108;13.622;2023-01-27T00:58:17;100845.56;;;-1.03;65.23
68654;BME280;55636;51.108;13.622;2023-01-27T00:59:22;100837.41;;;-1.03;65.04
68654;BME280;55636;51.108;13.622;2023-01-27T01:00:38;100835.72;;;-1.05;65.17
68654;BME280;55636;51.108;13.622;2023-01-27T01:01:55;100844.69;;;-1.04;65.16
68654;BME280;55636;51.108;13.622;2023-01-27T01:03:02;100842.97;;;-1.05;65.17
68654;BME280;55636;51.108;13.622;2023-01-27T01:04:14;100837.56;;;-1.05;65.13
68654;BME280;55636;51.108;13.622;2023-01-27T01:05:24;100840.28;;;-1.05;65.16
68654;BME280;55636;51.108;13.622;2023-01-27T01:06:36;100841.97;;;-1.04;65.11
68654;BME280;55636;51.108;13.622;2023-01-27T01:07:42;100843.84;;;-1.05;64.98
68654;BME280;55636;51.108;13.622;2023-01-27T01:08:55;100842.97;;;-1.05;64.99
68654;BME280;55636;51.108;13.622;2023-01-27T01:10:12;100841.13;;;-1.05;65.06
68654;BME280;55636;51.108;13.622;2023-01-27T01:11:20;100854.69;;;-1.05;65.14
68654;BME280;55636;51.108;13.622;2023-01-27T01:12:25;100843.84;;;-1.05;65.15
68654;BME280;55636;51.108;13.622;2023-01-27T01:13:33;100838.44;;;-1.05;65.17
68654;BME280;55636;51.108;13.622;2023-01-27T01:15:05;100842.97;;;-1.05;65.19
68654;BME280;55636;51.108;13.622;2023-01-27T01:16:19;100841.97;;;-1.04;65.05
68654;BME280;55636;51.108;13.622;2023-01-27T01:17:43;100838.44;;;-1.05;65.12
68654;BME280;55636;51.108;13.622;2023-01-27T01:18:57;100844.03;;;-1.06;65.14
68654;BME280;55636;51.108;13.622;2023-01-27T01:20:08;100846.56;;;-1.05;65.05
68654;BME280;55636;51.108;13.622;2023-01-27T01:21:22;100845.69;;;-1.05;65.10
68654;BME280;55636;51.108;13.622;2023-01-27T01:22:33;100856.53;;;-1.05;65.06
68654;BME280;55636;51.108;13.622;2023-01-27T01:23:45;100850.28;;;-1.06;65.13
68654;BME280;55636;51.108;13.622;2023-01-27T01:25:04;100844.03;;;-1.06;65.23
68654;BME280;55636;51.108;13.622;2023-01-27T01:26:26;100848.41;;;-1.05;65.15
68654;BME280;55636;51.108;13.622;2023-01-27T01:27:55;100850.28;;;-1.06;65.21
68654;BME280;55636;51.108;13.622;2023-01-27T01:29:01;100856.53;;;-1.05;65.23
68654;BME280;55636;51.108;13.622;2023-01-27T01:30:17;100844.88;;;-1.06;65.18
68654;BME280;55636;51.108;13.622;2023-01-27T01:31:34;100853.84;;;-1.05;65.34
68654;BME280;55636;51.108;13.622;2023-01-27T01:32:52;100847.56;;;-1.06;65.35
68654;BME280;55636;51.108;13.622;2023-01-27T01:34:02;100844.88;;;-1.06;65.32
68654;BME280;55636;51.108;13.622;2023-01-27T01:35:10;100850.28;;;-1.06;65.24
68654;BME280;55636;51.108;13.622;2023-01-27T01:36:29;100844.69;;;-1.04;65.34
68654;BME280;55636;51.108;13.622;2023-01-27T01:37:44;100846.56;;;-1.05;65.19
68654;BME280;55636;51.108;13.622;2023-01-27T01:38:59;100848.41;;;-1.05;65.17
68654;BME280;55636;51.108;13.622;2023-01-27T01:40:14;100850.09;;;-1.04;65.21
68654;BME280;55636;51.108;13.622;2023-01-27T01:41:20;100840.28;;;-1.05;65.30
68654;BME280;55636;51.108;13.622;2023-01-27T01:43:13;100846.38;;;-1.03;65.29
68654;BME280;55636;51.108;13.622;2023-01-27T01:44:31;100849.28;;;-1.05;65.35
68654;BME280;55636;51.108;13.622;2023-01-27T01:47:25;100833.00;;;-1.05;65.24
68654;BME280;55636;51.108;13.622;2023-01-27T01:48:50;100839.09;;;-1.02;65.15
68654;BME280;55636;51.108;13.622;2023-01-27T01:49:53;100839.09;;;-1.02;65.08
68654;BME280;55636;51.108;13.622;2023-01-27T01:51:11;100839.25;;;-1.04;65.16
68654;BME280;55636;51.108;13.622;2023-01-27T01:52:18;100836.56;;;-1.04;65.07
68654;BME280;55636;51.108;13.622;2023-01-27T01:53:25;100846.56;;;-1.05;65.06
68654;BME280;55636;51.108;13.622;2023-01-27T01:54:34;100842.16;;;-1.06;65.26
68654;BME280;55636;51.108;13.622;2023-01-27T01:55:40;100851.97;;;-1.05;65.18
68654;BME280;55636;51.108;13.622;2023-01-27T01:56:52;100846.56;;;-1.05;65.23
68654;BME280;55636;51.108;13.622;2023-01-27T01:57:56;100848.41;;;-1.05;65.18
68654;BME280;55636;51.108;13.622;2023-01-27T01:59:03;100850.97;;;-1.03;65.20
68654;BME280;55636;51.108;13.622;2023-01-27T02:00:07;100844.88;;;-1.06;65.18
68654;BME280;55636;51.108;13.622;2023-01-27T02:01:17;100848.59;;;-1.07;65.09
68654;BME280;55636;51.108;13.622;2023-01-27T02:02:25;100844.88;;;-1.06;65.22
68654;BME280;55636;51.108;13.622;2023-01-27T02:03:28;100848.59;;;-1.07;65.09
68654;BME280;55636;51.108;13.622;2023-01-27T02:04:37;100847.56;;;-1.06;65.02
68654;BME280;55636;51.108;13.622;2023-01-27T02:05:43;100845.88;;;-1.07;65.15
68654;BME280;55636;51.108;13.622;2023-01-27T02:06:57;100850.28;;;-1.06;65.20
68654;BME280;55636;51.108;13.622;2023-01-27T02:08:07;100854.00;;;-1.07;65.27
68654;BME280;55636;51.108;13.622;2023-01-27T02:09:10;100848.59;;;-1.07;65.17
68654;BME280;55636;51.108;13.622;2023-01-27T02:10:16;100857.59;;;-1.06;65.11
68654;BME280;55636;51.108;13.622;2023-01-27T02:11:19;100855.72;;;-1.06;65.19
68654;BME280;55636;51.108;13.622;2023-01-27T02:12:22;100856.72;;;-1.07;65.27
68654;BME280;55636;51.108;13.622;2023-01-27T02:13:24;100863.84;;;-1.06;65.25
68654;BME280;55636;51.108;13.622;2023-01-27T02:14:26;100858.41;;;-1.06;65.39
68654;BME280;55636;51.108;13.622;2023-01-27T02:15:29;100854.69;;;-1.05;65.36
68654;BME280;55636;51.108;13.622;2023-01-27T02:16:35;100854.69;;;-1.05;65.18
68654;BME280;55636;51.108;13.622;2023-01-27T02:17:37;100861.13;;;-1.06;65.19
68654;BME280;55636;51.108;13.622;2023-01-27T02:18:41;100855.53;;;-1.04;65.26
68654;BME280;55636;51.108;13.622;2023-01-27T02:20:53;100856.41;;;-1.03;65.20
68654;BME280;55636;51.108;13.622;2023-01-27T02:21:56;100853.50;;;-1.02;65.20
68654;BME280;55636;51.108;13.622;2023-01-27T02:23:17;100858.06;;;-1.02;65.23
68654;BME280;55636;51.108;13.622;2023-01-27T02:24:29;100852.63;;;-1.02;65.13
68654;BME280;55636;51.108;13.622;2023-01-27T02:26:43;100866.91;;;-1.00;65.30
68654;BME280;55636;51.108;13.622;2023-01-27T02:27:45;100864.34;;;-1.02;65.31
68654;BME280;55636;51.108;13.622;2023-01-27T02:30:31;100857.91;;;-1.01;65.23
68654;BME280;55636;51.108;13.622;2023-01-27T02:31:33;100862.47;;;-1.01;65.04
68654;BME280;55636;51.108;13.622;2023-01-27T02:32:36;100848.91;;;-1.01;65.08
68654;BME280;55636;51.108;13.622;2023-01-27T02:33:41;100854.34;;;-1.01;65.18
68654;BME280;55636;51.108;13.622;2023-01-27T02:34:47;100859.78;;;-1.01;65.23
68654;BME280;55636;51.108;13.622;2023-01-27T02:37:06;100852.50;;;-1.01;65.22
68654;BME280;55636;51.108;13.622;2023-01-27T02:38:11;100857.91;;;-1.01;65.25
68654;BME280;55636;51.108;13.622;2023-01-27T02:39:17;100855.22;;;-1.01;65.12
68654;BME280;55636;51.108;13.622;2023-01-27T02:40:24;100857.06;;;-1.01;65.21
68654;BME280;55636;51.108;13.622;2023-01-27T02:41:39;100850.63;;;-1.00;65.18
68654;BME280;55636;51.108;13.622;2023-01-27T02:42:44;100856.03;;;-1.00;65.02
68654;BME280;55636;51.108;13.622;2023-01-27T02:43:48;100848.75;;;-1.00;65.12
68654;BME280;55636;51.108;13.622;2023-01-27T02:44:51;100865.19;;;-1.01;65.19
68654;BME280;55636;51.108;13.622;2023-01-27T02:45:54;100866.06;;;-1.01;65.01
68654;BME280;55636;51.108;13.622;2023-01-27T02:46:57;100866.91;;;-1.00;65.05
68654;BME280;55636;51.108;13.622;2023-01-27T02:48:00;100869.44;;;-0.99;65.18
68654;BME280;55636;51.108;13.622;2023-01-27T02:49:03;100872.13;;;-0.99;65.11
68654;BME280;55636;51.108;13.622;2023-01-27T02:50:05;100859.59;;;-1.00;65.14
68654;BME280;55636;51.108;13.622;2023-01-27T02:51:08;100870.44;;;-1.00;65.01
68654;BME280;55636;51.108;13.622;2023-01-27T02:52:13;100873.16;;;-1.00;64.99
68654;BME280;55636;51.108;13.622;2023-01-27T02:53:15;100871.13;;;-0.98;65.18
68654;BME280;55636;51.108;13.622;2023-01-27T02:54:17;100876.72;;;-0.99;64.95
68654;BME280;55636;51.108;13.622;2023-01-27T02:55:19;100874.69;;;-0.97;65.13
68654;BME280;55636;51.108;13.622;2023-01-27T02:56:25;100871.13;;;-0.98;64.99
68654;BME280;55636;51.108;13.622;2023-01-27T02:57:30;100870.28;;;-0.98;65.12
68654;BME280;55636;51.108;13.622;2023-01-27T02:58:49;100870.13;;;-0.97;64.92
68654;BME280;55636;51.108;13.622;2023-01-27T02:59:57;100877.38;;;-0.97;64.93
68654;BME280;55636;51.108;13.622;2023-01-27T03:01:00;100878.25;;;-0.97;64.92
68654;BME280;55636;51.108;13.622;2023-01-27T03:02:03;100879.09;;;-0.96;65.06
68654;BME280;55636;51.108;13.622;2023-01-27T03:03:05;100874.69;;;-0.97;64.89
68654;BME280;55636;51.108;13.622;2023-01-27T03:04:07;100879.09;;;-0.96;64.92
68654;BME280;55636;51.108;13.622;2023-01-27T03:05:16;100878.25;;;-0.97;65.00
68654;BME280;55636;51.108;13.622;2023-01-27T03:06:19;100872.81;;;-0.97;65.13
68654;BME280;55636;51.108;13.622;2023-01-27T03:07:23;100879.09;;;-0.96;65.04
68654;BME280;55636;51.108;13.622;2023-01-27T03:08:28;100879.09;;;-0.96;65.04
68654;BME280;55636;51.108;13.622;2023-01-27T03:09:30;100873.66;;;-0.96;64.94
68654;BME280;55636;51.108;13.622;2023-01-27T03:10:35;100875.38;;;-0.95;65.01
68654;BME280;55636;51.108;13.622;2023-01-27T03:11:38;100875.38;;;-0.95;65.09
68654;BME280;55636;51.108;13.622;2023-01-27T03:12:58;100870.94;;;-0.96;65.15
68654;BME280;55636;51.108;13.622;2023-01-27T03:14:01;100860.97;;;-0.96;64.99
68654;BME280;55636;51.108;13.622;2023-01-27T03:15:06;100870.94;;;-0.96;65.00
68654;BME280;55636;51.108;13.622;2023-01-27T03:16:28;100877.25;;;-0.96;65.22
68654;BME280;55636;51.108;13.622;2023-01-27T03:17:52;100869.09;;;-0.96;65.18
68654;BME280;55636;51.108;13.622;2023-01-27T03:19:35;100877.25;;;-0.96;65.07
68654;BME280;55636;51.108;13.622;2023-01-27T03:20:45;100876.38;;;-0.96;65.31
68654;BME280;55636;51.108;13.622;2023-01-27T03:21:48;100877.38;;;-0.97;65.17
68654;BME280;55636;51.108;13.622;2023-01-27T03:22:55;100874.69;;;-0.97;65.35
68654;BME280;55636;51.108;13.622;2023-01-27T03:23:59;100877.56;;;-0.99;65.27
68654;BME280;55636;51.108;13.622;2023-01-27T03:25:01;100881.97;;;-0.98;65.33
68654;BME280;55636;51.108;13.622;2023-01-27T03:26:08;100881.16;;;-0.98;65.37
68654;BME280;55636;51.108;13.622;2023-01-27T03:27:13;100879.25;;;-0.98;65.29
68654;BME280;55636;51.108;13.622;2023-01-27T03:28:35;100883.84;;;-0.98;65.21
68654;BME280;55636;51.108;13.622;2023-01-27T03:29:45;100881.97;;;-0.98;65.36
68654;BME280;55636;51.108;13.622;2023-01-27T03:31:08;100881.16;;;-0.98;65.29
68654;BME280;55636;51.108;13.622;2023-01-27T03:32:28;100878.44;;;-0.98;65.36
68654;BME280;55636;51.108;13.622;2023-01-27T03:34:03;100880.47;;;-1.00;65.44
68654;BME280;55636;51.108;13.622;2023-01-27T03:35:15;100884.88;;;-0.99;65.30
68654;BME280;55636;51.108;13.622;2023-01-27T03:36:21;100885.69;;;-0.99;65.36
68654;BME280;55636;51.108;13.622;2023-01-27T03:37:42;100886.56;;;-0.98;65.45
68654;BME280;55636;51.108;13.622;2023-01-27T03:39:03;100885.69;;;-0.99;65.35
68654;BME280;55636;51.108;13.622;2023-01-27T03:40:25;100884.88;;;-0.99;65.44
68654;BME280;55636;51.108;13.622;2023-01-27T03:41:46;100885.69;;;-0.99;65.45
68654;BME280;55636;51.108;13.622;2023-01-27T03:43:08;100884.00;;;-1.00;65.66
68654;BME280;55636;51.108;13.622;2023-01-27T03:44:29;100885.88;;;-1.00;65.77
68654;BME280;55636;51.108;13.622;2023-01-27T03:45:53;100877.75;;;-1.00;65.69
68654;BME280;55636;51.108;13.622;2023-01-27T03:47:14;100890.28;;;-0.99;65.69
68654;BME280;55636;51.108;13.622;2023-01-27T03:48:17;100896.72;;;-1.00;65.76
68654;BME280;55636;51.108;13.622;2023-01-27T03:49:21;100898.59;;;-1.01;66.08
68654;BME280;55636;51.108;13.622;2023-01-27T03:50:24;100887.56;;;-0.99;66.05
68654;BME280;55636;51.108;13.622;2023-01-27T03:51:42;100893.19;;;-1.01;66.09
68654;BME280;55636;51.108;13.622;2023-01-27T03:52:49;100887.91;;;-1.02;66.00
68654;BME280;55636;51.108;13.622;2023-01-27T03:54:04;100893.19;;;-1.01;66.05
68654;BME280;55636;51.108;13.622;2023-01-27T03:55:07;100894.00;;;-1.00;66.13
68654;BME280;55636;51.108;13.622;2023-01-27T03:56:10;100891.31;;;-1.00;66.24
68654;BME280;55636;51.108;13.622;2023-01-27T03:57:13;100885.88;;;-1.00;66.27
68654;BME280;55636;51.108;13.622;2023-01-27T03:58:25;100887.75;;;-1.01;66.18
68654;BME280;55636;51.108;13.622;2023-01-27T03:59:27;100884.19;;;-1.01;66.34
68654;BME280;55636;51.108;13.622;2023-01-27T04:00:30;100886.06;;;-1.02;66.30
68654;BME280;55636;51.108;13.622;2023-01-27T04:01:33;100890.47;;;-1.01;66.46
68654;BME280;55636;51.108;13.622;2023-01-27T04:02:35;100886.06;;;-1.02;66.38
68654;BME280;55636;51.108;13.622;2023-01-27T04:03:56;100884.19;;;-1.01;66.45
68654;BME280;55636;51.108;13.622;2023-01-27T04:05:20;100890.63;;;-1.02;66.45
68654;BME280;55636;51.108;13.622;2023-01-27T04:06:44;100889.78;;;-1.03;66.42
68654;BME280;55636;51.108;13.622;2023-01-27T04:08:04;100888.78;;;-1.02;66.67
68654;BME280;55636;51.108;13.622;2023-01-27T04:09:08;100889.59;;;-1.01;66.59
68654;BME280;55636;51.108;13.622;2023-01-27T04:10:14;100889.59;;;-1.01;66.52
68654;BME280;55636;51.108;13.622;2023-01-27T04:11:16;100894.19;;;-1.02;66.62
68654;BME280;55636;51.108;13.622;2023-01-27T04:12:37;100891.31;;;-1.00;66.70
68654;BME280;55636;51.108;13.622;2023-01-27T04:13:42;100889.59;;;-1.01;66.53
68654;BME280;55636;51.108;13.622;2023-01-27T04:14:45;100886.88;;;-1.01;66.64
68654;BME280;55636;51.108;13.622;2023-01-27T04:15:47;100892.31;;;-1.01;66.64
68654;BME280;55636;51.108;13.622;2023-01-27T04:16:50;100891.47;;;-1.02;66.80
68654;BME280;55636;51.108;13.622;2023-01-27T04:17:53;100893.19;;;-1.01;66.73
68654;BME280;55636;51.108;13.622;2023-01-27T04:18:56;100896.72;;;-1.00;66.70
68654;BME280;55636;51.108;13.622;2023-01-27T04:19:58;100893.19;;;-1.01;66.62
68654;BME280;55636;51.108;13.622;2023-01-27T04:21:01;100901.31;;;-1.01;66.91
68654;BME280;55636;51.108;13.622;2023-01-27T04:22:06;100895.03;;;-1.01;66.80
68654;BME280;55636;51.108;13.622;2023-01-27T04:23:08;100898.59;;;-1.01;66.66
68654;BME280;55636;51.108;13.622;2023-01-27T04:24:11;100892.13;;;-1.00;66.80
68654;BME280;55636;51.108;13.622;2023-01-27T04:25:17;100884.00;;;-1.00;66.71
68654;BME280;55636;51.108;13.622;2023-01-27T04:26:21;100888.41;;;-0.99;66.67
68654;BME280;55636;51.108;13.622;2023-01-27T04:27:24;100892.13;;;-1.00;66.77
68654;BME280;55636;51.108;13.622;2023-01-27T04:28:26;100885.03;;;-1.01;66.88
68654;BME280;55636;51.108;13.622;2023-01-27T04:29:44;100883.16;;;-1.00;66.71
68654;BME280;55636;51.108;13.622;2023-01-27T04:30:47;100883.00;;;-0.99;66.86
68654;BME280;55636;51.108;13.622;2023-01-27T04:31:49;100877.75;;;-1.00;66.76
68654;BME280;55636;51.108;13.622;2023-01-27T04:32:52;100877.75;;;-1.00;66.72
68654;BME280;55636;51.108;13.622;2023-01-27T04:33:55;100886.72;;;-1.00;66.82
68654;BME280;55636;51.108;13.622;2023-01-27T04:34:57;100887.56;;;-0.99;66.82
68654;BME280;55636;51.108;13.622;2023-01-27T04:35:59;100890.13;;;-0.98;66.78
68654;BME280;55636;51.108;13.622;2023-01-27T04:37:02;100885.53;;;-0.97;66.74
68654;BME280;55636;51.108;13.622;2023-01-27T04:38:05;100893.00;;;-0.99;66.69
68654;BME280;55636;51.108;13.622;2023-01-27T04:39:08;100884.88;;;-0.99;66.79
68654;BME280;55636;51.108;13.622;2023-01-27T04:40:11;100883.16;;;-1.00;66.81
68654;BME280;55636;51.108;13.622;2023-01-27T04:41:13;100883.00;;;-0.99;66.97
68654;BME280;55636;51.108;13.622;2023-01-27T04:42:16;100888.41;;;-0.99;66.71
68654;BME280;55636;51.108;13.622;2023-01-27T04:43:18;100888.41;;;-0.99;66.84
68654;BME280;55636;51.108;13.622;2023-01-27T04:44:21;100881.16;;;-0.98;66.76
68654;BME280;55636;51.108;13.622;2023-01-27T04:45:24;100889.09;;;-0.97;66.91
68654;BME280;55636;51.108;13.622;2023-01-27T04:46:27;100890.94;;;-0.97;66.77
68654;BME280;55636;51.108;13.622;2023-01-27T04:47:32;100888.41;;;-0.99;66.76
68654;BME280;55636;51.108;13.622;2023-01-27T04:48:38;100893.66;;;-0.97;66.78
68654;BME280;55636;51.108;13.622;2023-01-27T04:49:40;100887.56;;;-0.99;66.88
68654;BME280;55636;51.108;13.622;2023-01-27T04:50:42;100882.16;;;-0.99;66.89
68654;BME280;55636;51.108;13.622;2023-01-27T04:51:45;100884.69;;;-0.98;66.86
68654;BME280;55636;51.108;13.622;2023-01-27T04:52:49;100885.69;;;-0.99;66.95
68654;BME280;55636;51.108;13.622;2023-01-27T04:53:52;100888.41;;;-0.99;67.02
68654;BME280;55636;51.108;13.622;2023-01-27T04:54:54;100884.88;;;-0.99;66.93
68654;BME280;55636;51.108;13.622;2023-01-27T04:56:05;100888.41;;;-0.99;67.08
68654;BME280;55636;51.108;13.622;2023-01-27T04:57:08;100879.44;;;-0.99;66.89
68654;BME280;55636;51.108;13.622;2023-01-27T04:58:12;100884.88;;;-0.99;67.00
68654;BME280;55636;51.108;13.622;2023-01-27T04:59:15;100884.88;;;-0.99;67.04
68654;BME280;55636;51.108;13.622;2023-01-27T05:00:19;100889.28;;;-0.98;67.10
68654;BME280;55636;51.108;13.622;2023-01-27T05:01:21;100889.28;;;-0.98;66.99
68654;BME280;55636;51.108;13.622;2023-01-27T05:02:23;100882.16;;;-0.99;67.03
68654;BME280;55636;51.108;13.622;2023-01-27T05:03:27;100884.88;;;-0.99;66.96
68654;BME280;55636;51.108;13.622;2023-01-27T05:04:29;100885.53;;;-0.97;67.16
68654;BME280;55636;51.108;13.622;2023-01-27T05:05:31;100890.13;;;-0.98;67.04
68654;BME280;55636;51.108;13.622;2023-01-27T05:06:34;100881.97;;;-0.98;66.93
68654;BME280;55636;51.108;13.622;2023-01-27T05:07:37;100881.97;;;-0.98;66.96
68654;BME280;55636;51.108;13.622;2023-01-27T05:08:39;100890.13;;;-0.98;67.01
68654;BME280;55636;51.108;13.622;2023-01-27T05:09:41;100881.16;;;-0.98;67.10
68654;BME280;55636;51.108;13.622;2023-01-27T05:10:44;100882.81;;;-0.97;67.00
68654;BME280;55636;51.108;13.622;2023-01-27T05:11:46;100888.22;;;-0.97;67.05
68654;BME280;55636;51.108;13.622;2023-01-27T05:12:48;100880.09;;;-0.97;67.05
68654;BME280;55636;51.108;13.622;2023-01-27T05:13:51;100884.50;;;-0.96;67.24
68654;BME280;55636;51.108;13.622;2023-01-27T05:14:53;100892.66;;;-0.96;67.23
68654;BME280;55636;51.108;13.622;2023-01-27T05:16:18;100895.38;;;-0.96;67.13
68654;BME280;55636;51.108;13.622;2023-01-27T05:17:21;100890.81;;;-0.96;67.02
68654;BME280;55636;51.108;13.622;2023-01-27T05:18:23;100884.50;;;-0.96;67.18
68654;BME280;55636;51.108;13.622;2023-01-27T05:19:25;100891.81;;;-0.97;66.98
68654;BME280;55636;51.108;13.622;2023-01-27T05:20:27;100886.38;;;-0.97;67.04
68654;BME280;55636;51.108;13.622;2023-01-27T05:21:29;100884.50;;;-0.96;67.07
68654;BME280;55636;51.108;13.622;2023-01-27T05:22:32;100884.50;;;-0.96;67.17
68654;BME280;55636;51.108;13.622;2023-01-27T05:23:34;100874.53;;;-0.96;67.11
68654;BME280;55636;51.108;13.622;2023-01-27T05:24:37;100879.78;;;-0.94;67.06
68654;BME280;55636;51.108;13.622;2023-01-27T05:25:43;100882.50;;;-0.94;67.15
68654;BME280;55636;51.108;13.622;2023-01-27T05:26:45;100887.03;;;-0.95;67.16
68654;BME280;55636;51.108;13.622;2023-01-27T05:27:47;100890.81;;;-0.96;67.14
68654;BME280;55636;51.108;13.622;2023-01-27T05:28:51;100888.94;;;-0.95;67.27
68654;BME280;55636;51.108;13.622;2023-01-27T05:29:54;100882.66;;;-0.96;67.10
68654;BME280;55636;51.108;13.622;2023-01-27T05:31:07;100891.81;;;-0.97;67.30
68654;BME280;55636;51.108;13.622;2023-01-27T05:32:10;100886.22;;;-0.95;67.11
68654;BME280;55636;51.108;13.622;2023-01-27T05:33:12;100892.66;;;-0.96;67.16
68654;BME280;55636;51.108;13.622;2023-01-27T05:34:18;100889.09;;;-0.97;67.32
68654;BME280;55636;51.108;13.622;2023-01-27T05:35:20;100887.22;;;-0.96;67.24
68654;BME280;55636;51.108;13.622;2023-01-27T05:36:24;100882.66;;;-0.96;67.20
68654;BME280;55636;51.108;13.622;2023-01-27T05:37:26;100888.22;;;-0.97;67.30
68654;BME280;55636;51.108;13.622;2023-01-27T05:38:29;100886.38;;;-0.97;67.28
68654;BME280;55636;51.108;13.622;2023-01-27T05:39:31;100891.81;;;-0.97;67.35
68654;BME280;55636;51.108;13.622;2023-01-27T05:40:33;100890.94;;;-0.97;67.36
68654;BME280;55636;51.108;13.622;2023-01-27T05:41:36;100890.94;;;-0.97;67.28
68654;BME280;55636;51.108;13.622;2023-01-27T05:42:38;100895.53;;;-0.98;67.56
68654;BME280;55636;51.108;13.622;2023-01-27T05:43:45;100898.25;;;-0.98;67.41
68654;BME280;55636;51.108;13.622;2023-01-27T05:44:47;100899.94;;;-0.97;67.46
68654;BME280;55636;51.108;13.622;2023-01-27T05:45:51;100897.41;;;-0.98;67.37
68654;BME280;55636;51.108;13.622;2023-01-27T05:46:53;100901.97;;;-0.99;67.50
68654;BME280;55636;51.108;13.622;2023-01-27T05:47:55;100903.69;;;-0.98;67.51
68654;BME280;55636;51.108;13.622;2023-01-27T05:49:00;100909.09;;;-0.98;67.47
68654;BME280;55636;51.108;13.622;2023-01-27T05:50:03;100901.13;;;-0.99;67.59
68654;BME280;55636;51.108;13.622;2023-01-27T05:51:06;100912.81;;;-0.99;67.40
68654;BME280;55636;51.108;13.622;2023-01-27T05:52:09;100913.69;;;-0.98;67.51
68654;BME280;55636;51.108;13.622;2023-01-27T05:53:11;100916.41;;;-0.98;67.49
68654;BME280;55636;51.108;13.622;2023-01-27T05:54:14;100923.34;;;-0.96;67.51
68654;BME280;55636;51.108;13.622;2023-01-27T05:55:16;100918.06;;;-0.97;67.45
68654;BME280;55636;51.108;13.622;2023-01-27T05:56:18;100921.66;;;-0.97;67.59
68654;BME280;55636;51.108;13.622;2023-01-27T05:57:21;100927.25;;;-0.98;67.40
68654;BME280;55636;51.108;13.622;2023-01-27T05:58:24;100933.34;;;-0.96;67.56
68654;BME280;55636;51.108;13.622;2023-01-27T05:59:26;100929.78;;;-0.97;67.47
68654;BME280;55636;51.108;13.622;2023-01-27T06:00:28;100933.34;;;-0.96;67.52
68654;BME280;55636;51.108;13.622;2023-01-27T06:01:32;100927.91;;;-0.96;67.66
68654;BME280;55636;51.108;13.622;2023-01-27T06:02:35;100929.78;;;-0.97;67.53